Welcome to Northern Hawkes Bay. New Zealand.
PWS Header
      nz Flag



Hit Counter


W3C Valid W3C Valid logo


    Wairoa

Select any of the Stations below to visit their websites.










Historic Data from Weather Underground
Select the location of interest below. Wairoa is the default. Please have patience, this Data is slow to load in.
Northern Hawkes Bay Historical Data
Daily Summary for May 21, 2017 Units:  Metric    English   Both
« Previous Day
Next Day »
Daily Weekly Monthly Yearly Custom
  High: Low: Average:
Temperature: 12.4 °C 4.7 °C 9.1 °C
Dew Point: 4.5 °C -2.4 °C 1.9 °C
Humidity: 75% 52% 61%
Wind Speed: 42.8km/h 2.6km/h 19.3km/h
Wind Gust: 60.2km/h - -
Wind- - WSW
Pressure: 1029.3 hPa 1014.4 hPa -
Precipitation: 0.0 mm    
Historical Graphs
 
 
Tabular Data for May 21, 2017
Time Temperature Dew Point Pressure Wind Wind Speed Wind Gust Humidity Rainfall Rate (Hourly) solar
00:04 5.8 °C -1.8 °C 1014.4 hPa WNW 3.5 km/h 14.8 km/h 58% 0.0 mm 0 W/m2
00:09 5.9 °C -1.9 °C 1014.4 hPa WNW 7.2 km/h 13.4 km/h 57% 0.0 mm 0 W/m2
00:14 5.8 °C -2.1 °C 1014.4 hPa NW 2.6 km/h 13.4 km/h 57% 0.0 mm 0 W/m2
00:19 5.6 °C -2.2 °C 1014.4 hPa NW 6.1 km/h 9.7 km/h 57% 0.0 mm 0 W/m2
00:24 5.4 °C -1.9 °C 1014.4 hPa NW 5.0 km/h 9.7 km/h 59% 0.0 mm 0 W/m2
00:29 5.2 °C -1.9 °C 1014.8 hPa NW 5.0 km/h 11.1 km/h 60% 0.0 mm 0 W/m2
00:34 5.1 °C -1.8 °C 1014.8 hPa NW 7.2 km/h 11.1 km/h 61% 0.0 mm 0 W/m2
00:39 5.0 °C -1.7 °C 1014.8 hPa NW 5.0 km/h 11.1 km/h 62% 0.0 mm 0 W/m2
00:44 5.0 °C -1.7 °C 1014.8 hPa NW 5.0 km/h 11.1 km/h 62% 0.0 mm 0 W/m2
00:49 5.0 °C -1.4 °C 1014.8 hPa NW 6.1 km/h 11.1 km/h 63% 0.0 mm 0 W/m2
00:54 4.9 °C -1.3 °C 1015.1 hPa NW 3.5 km/h 11.1 km/h 64% 0.0 mm 0 W/m2
00:59 5.0 °C -1.4 °C 1015.1 hPa NW 5.0 km/h 11.1 km/h 63% 0.0 mm 0 W/m2
01:04 5.2 °C -1.7 °C 1015.1 hPa WNW 6.1 km/h 11.1 km/h 61% 0.0 mm 0 W/m2
01:09 5.9 °C -1.9 °C 1015.1 hPa WNW 5.0 km/h 15.8 km/h 57% 0.0 mm 0 W/m2
01:14 6.3 °C -2.3 °C 1015.1 hPa WNW 5.0 km/h 15.8 km/h 54% 0.0 mm 0 W/m2
01:19 6.4 °C -2.2 °C 1015.1 hPa WNW 3.5 km/h 15.8 km/h 54% 0.0 mm 0 W/m2
01:24 6.4 °C -2.2 °C 1015.1 hPa WNW 5.0 km/h 15.8 km/h 54% 0.0 mm 0 W/m2
01:30 6.2 °C -2.4 °C 1014.8 hPa WNW 7.2 km/h 11.1 km/h 54% 0.0 mm 0 W/m2
01:35 6.1 °C -2.3 °C 1015.1 hPa WNW 6.1 km/h 11.1 km/h 55% 0.0 mm 0 W/m2
01:40 6.1 °C -2.3 °C 1015.1 hPa WNW 5.0 km/h 11.1 km/h 55% 0.0 mm 0 W/m2
01:46 6.0 °C -2.3 °C 1015.1 hPa WNW 8.7 km/h 11.1 km/h 55% 0.0 mm 0 W/m2
01:51 6.0 °C -2.3 °C 1015.5 hPa NW 7.2 km/h 13.4 km/h 55% 0.0 mm 0 W/m2
01:56 6.0 °C -2.3 °C 1015.1 hPa NW 6.1 km/h 13.4 km/h 55% 0.0 mm 0 W/m2
02:01 6.0 °C -2.1 °C 1015.5 hPa NW 5.0 km/h 12.2 km/h 56% 0.0 mm 0 W/m2
02:06 5.9 °C -1.9 °C 1015.5 hPa WNW 5.0 km/h 9.7 km/h 57% 0.0 mm 0 W/m2
02:11 5.9 °C -1.9 °C 1015.5 hPa WNW 5.0 km/h 12.2 km/h 57% 0.0 mm 0 W/m2
02:16 5.9 °C -1.7 °C 1015.5 hPa WNW 7.2 km/h 12.2 km/h 58% 0.0 mm 0 W/m2
02:21 5.9 °C -1.9 °C 1015.5 hPa NW 8.7 km/h 13.4 km/h 57% 0.0 mm 0 W/m2
02:26 6.0 °C -2.1 °C 1015.5 hPa NW 7.2 km/h 15.8 km/h 56% 0.0 mm 0 W/m2
02:31 6.0 °C -2.1 °C 1015.8 hPa WNW 8.7 km/h 15.8 km/h 56% 0.0 mm 0 W/m2
02:36 6.2 °C -1.9 °C 1015.5 hPa WNW 8.7 km/h 15.8 km/h 56% 0.0 mm 0 W/m2
02:41 6.2 °C -1.9 °C 1015.5 hPa WNW 6.1 km/h 12.2 km/h 56% 0.0 mm 0 W/m2
02:46 6.0 °C -1.9 °C 1015.5 hPa WNW 9.7 km/h 14.8 km/h 57% 0.0 mm 0 W/m2
02:51 5.8 °C -1.6 °C 1015.8 hPa WNW 5.0 km/h 14.8 km/h 59% 0.0 mm 0 W/m2
02:56 5.7 °C -1.7 °C 1015.8 hPa WNW 5.0 km/h 14.8 km/h 59% 0.0 mm 0 W/m2
03:01 5.5 °C -1.4 °C 1015.8 hPa NW 5.0 km/h 9.7 km/h 61% 0.0 mm 0 W/m2
03:06 5.2 °C -1.3 °C 1015.8 hPa NW 5.0 km/h 9.7 km/h 63% 0.0 mm 0 W/m2
03:11 4.9 °C -1.1 °C 1015.8 hPa NW 6.1 km/h 9.7 km/h 65% 0.0 mm 0 W/m2
03:16 4.8 °C -1.2 °C 1015.8 hPa NW 3.5 km/h 9.7 km/h 65% 0.0 mm 0 W/m2
03:21 4.7 °C -1.3 °C 1015.8 hPa NW 5.0 km/h 9.7 km/h 65% 0.0 mm 0 W/m2
03:26 4.7 °C -1.1 °C 1016.1 hPa NW 5.0 km/h 8.7 km/h 66% 0.0 mm 0 W/m2
03:31 4.8 °C -1.0 °C 1016.1 hPa NW 5.0 km/h 12.2 km/h 66% 0.0 mm 0 W/m2
03:36 4.8 °C -1.0 °C 1016.1 hPa NW 5.0 km/h 12.2 km/h 66% 0.0 mm 0 W/m2
03:41 4.9 °C -0.9 °C 1016.1 hPa NW 5.0 km/h 7.2 km/h 66% 0.0 mm 0 W/m2
03:46 4.9 °C -0.9 °C 1016.1 hPa NW 7.2 km/h 9.7 km/h 66% 0.0 mm 0 W/m2
03:51 5.0 °C -1.0 °C 1016.1 hPa NW 5.0 km/h 9.7 km/h 65% 0.0 mm 0 W/m2
03:56 5.0 °C -1.2 °C 1016.1 hPa WNW 7.2 km/h 9.7 km/h 64% 0.0 mm 0 W/m2
04:01 5.4 °C -1.1 °C 1016.5 hPa WNW 7.2 km/h 12.2 km/h 63% 0.0 mm 0 W/m2
04:06 5.5 °C -1.0 °C 1016.5 hPa WNW 5.0 km/h 12.2 km/h 63% 0.0 mm 0 W/m2
04:11 5.6 °C -0.9 °C 1016.5 hPa WNW 5.0 km/h 11.1 km/h 63% 0.0 mm 0 W/m2
04:16 5.5 °C -1.0 °C 1016.1 hPa West 5.0 km/h 11.1 km/h 63% 0.0 mm 0 W/m2
04:21 5.6 °C -1.1 °C 1016.5 hPa WNW 5.0 km/h 11.1 km/h 62% 0.0 mm 0 W/m2
04:26 5.6 °C -1.1 °C 1016.5 hPa WNW 6.1 km/h 14.8 km/h 62% 0.0 mm 0 W/m2
04:31 5.7 °C -1.0 °C 1016.5 hPa WNW 6.1 km/h 14.8 km/h 62% 0.0 mm 0 W/m2
04:36 5.7 °C -1.0 °C 1016.5 hPa WNW 6.1 km/h 11.1 km/h 62% 0.0 mm 0 W/m2
04:41 5.7 °C -1.0 °C 1016.8 hPa NW 8.7 km/h 11.1 km/h 62% 0.0 mm 0 W/m2
04:46 5.9 °C -1.1 °C 1017.2 hPa WNW 5.0 km/h 11.1 km/h 61% 0.0 mm 0 W/m2
04:51 5.9 °C -1.1 °C 1017.2 hPa West 3.5 km/h 11.1 km/h 61% 0.0 mm 0 W/m2
04:56 6.1 °C -1.3 °C 1017.2 hPa West 11.1 km/h 18.3 km/h 59% 0.0 mm 0 W/m2
05:01 6.6 °C -1.3 °C 1017.2 hPa WSW 11.1 km/h 18.3 km/h 57% 0.0 mm 0 W/m2
05:06 7.1 °C -1.3 °C 1017.5 hPa SW 19.5 km/h 27.0 km/h 55% 0.0 mm 0 W/m2
05:11 7.8 °C -0.7 °C 1017.5 hPa WSW 15.8 km/h 39.3 km/h 55% 0.0 mm 0 W/m2
05:16 8.2 °C -0.3 °C 1017.5 hPa WSW 12.2 km/h 40.4 km/h 55% 0.0 mm 0 W/m2
05:18 8.2 °C -0.3 °C 1017.5 hPa WSW 21.9 km/h 40.4 km/h 55% 0.0 mm 0 W/m2
05:23 8.4 °C -0.1 °C 1017.5 hPa SW 24.5 km/h 45.4 km/h 55% 0.0 mm 0 W/m2
05:28 8.7 °C 0.2 °C 1017.8 hPa SW 23.3 km/h 45.4 km/h 55% 0.0 mm 0 W/m2
05:33 8.7 °C -0.1 °C 1018.2 hPa SW 24.5 km/h 50.0 km/h 54% 0.0 mm 0 W/m2
05:38 8.7 °C -0.1 °C 1017.8 hPa SW 24.5 km/h 50.0 km/h 54% 0.0 mm 0 W/m2
05:43 8.7 °C 0.2 °C 1018.2 hPa SW 31.7 km/h 50.0 km/h 55% 0.0 mm 0 W/m2
05:48 8.6 °C 0.1 °C 1018.2 hPa SW 20.9 km/h 50.0 km/h 55% 0.0 mm 0 W/m2
05:53 8.6 °C 0.3 °C 1018.5 hPa SW 17.2 km/h 47.9 km/h 56% 0.0 mm 0 W/m2
05:58 8.5 °C 0.4 °C 1018.2 hPa SW 25.6 km/h 47.9 km/h 57% 0.0 mm 0 W/m2
06:03 8.4 °C 0.1 °C 1018.2 hPa WSW 27.0 km/h 55.0 km/h 56% 0.0 mm 0 W/m2
06:08 8.4 °C 0.1 °C 1018.2 hPa WSW 24.5 km/h 55.0 km/h 56% 0.0 mm 0 W/m2
06:13 8.4 °C 0.4 °C 1018.2 hPa SW 30.6 km/h 45.4 km/h 57% 0.0 mm 0 W/m2
06:18 8.2 °C -0.1 °C 1018.2 hPa WSW 23.3 km/h 45.4 km/h 56% 0.0 mm 0 W/m2
06:23 8.1 °C -0.2 °C 1018.5 hPa West 25.6 km/h 46.5 km/h 56% 0.0 mm 0 W/m2
06:28 8.1 °C 0.1 °C 1018.5 hPa WSW 28.0 km/h 46.5 km/h 57% 0.0 mm 0 W/m2
06:33 8.1 °C 0.1 °C 1018.5 hPa WSW 25.6 km/h 43.9 km/h 57% 0.0 mm 0 W/m2
06:38 8.2 °C 0.2 °C 1018.8 hPa SW 24.5 km/h 45.4 km/h 57% 0.0 mm 0 W/m2
06:43 8.3 °C 0.3 °C 1018.8 hPa WSW 33.1 km/h 48.9 km/h 57% 0.0 mm 0 W/m2
06:48 8.2 °C 0.7 °C 1018.8 hPa WSW 23.3 km/h 48.9 km/h 59% 0.0 mm 0 W/m2
06:53 8.3 °C 1.0 °C 1019.2 hPa WSW 31.7 km/h 50.0 km/h 60% 0.0 mm 0 W/m2
06:58 8.2 °C 0.7 °C 1019.2 hPa WSW 24.5 km/h 50.0 km/h 59% 0.0 mm 0 W/m2
07:03 8.3 °C 1.4 °C 1019.2 hPa West 25.6 km/h 58.7 km/h 62% 0.0 mm 0 W/m2
07:08 8.4 °C 1.6 °C 1019.5 hPa West 21.9 km/h 58.7 km/h 62% 0.0 mm 1 W/m2
07:13 8.5 °C 1.2 °C 1019.5 hPa WSW 34.3 km/h 55.0 km/h 60% 0.0 mm 3 W/m2
07:18 8.6 °C 1.1 °C 1019.5 hPa West 19.5 km/h 56.2 km/h 59% 0.0 mm 6 W/m2
07:23 8.6 °C 1.5 °C 1019.5 hPa WSW 24.5 km/h 56.2 km/h 61% 0.0 mm 8 W/m2
07:28 8.7 °C 2.1 °C 1019.5 hPa SW 31.7 km/h 52.6 km/h 63% 0.0 mm 13 W/m2
07:33 8.8 °C 2.2 °C 1019.5 hPa WSW 21.9 km/h 50.0 km/h 63% 0.0 mm 15 W/m2
07:35 8.8 °C 2.4 °C 1019.9 hPa WSW 28.0 km/h 50.0 km/h 64% 0.0 mm 20 W/m2
07:40 8.7 °C 2.3 °C 1019.9 hPa WSW 35.6 km/h 50.0 km/h 64% 0.0 mm 16 W/m2
07:45 8.6 °C 2.2 °C 1019.9 hPa WSW 23.3 km/h 48.9 km/h 64% 0.0 mm 16 W/m2
07:50 8.4 °C 2.0 °C 1020.2 hPa WSW 29.4 km/h 48.9 km/h 64% 0.0 mm 24 W/m2
07:56 8.5 °C 2.3 °C 1019.9 hPa WSW 30.6 km/h 45.4 km/h 65% 0.0 mm 30 W/m2
08:01 8.6 °C 2.4 °C 1019.9 hPa WSW 30.6 km/h 43.9 km/h 65% 0.0 mm 45 W/m2
08:06 8.7 °C 2.5 °C 1020.2 hPa WSW 36.7 km/h 51.5 km/h 65% 0.0 mm 31 W/m2
08:11 8.7 °C 2.5 °C 1020.2 hPa WSW 28.0 km/h 52.6 km/h 65% 0.0 mm 120 W/m2
08:16 9.0 °C 2.6 °C 1020.2 hPa SW 24.5 km/h 52.6 km/h 64% 0.0 mm 45 W/m2
08:21 9.0 °C 1.9 °C 1020.5 hPa SW 33.1 km/h 51.5 km/h 61% 0.0 mm 87 W/m2
08:26 9.2 °C 2.5 °C 1020.5 hPa WSW 30.6 km/h 54.1 km/h 63% 0.0 mm 182 W/m2
08:31 9.3 °C 2.4 °C 1020.5 hPa WSW 31.7 km/h 56.2 km/h 62% 0.0 mm 182 W/m2
08:36 9.2 °C 2.1 °C 1020.5 hPa WSW 31.7 km/h 56.2 km/h 61% 0.0 mm 56 W/m2
08:41 9.3 °C 2.2 °C 1020.5 hPa SW 30.6 km/h 46.5 km/h 61% 0.0 mm 156 W/m2
08:46 9.6 °C 2.4 °C 1020.5 hPa SW 37.8 km/h 51.5 km/h 61% 0.0 mm 206 W/m2
08:51 9.6 °C 2.2 °C 1020.5 hPa SW 33.1 km/h 54.1 km/h 60% 0.0 mm 63 W/m2
08:56 9.6 °C 2.2 °C 1020.9 hPa SW 31.7 km/h 54.1 km/h 60% 0.0 mm 88 W/m2
09:01 9.7 °C 2.3 °C 1020.9 hPa SW 31.7 km/h 56.2 km/h 60% 0.0 mm 226 W/m2
09:06 10.0 °C 2.6 °C 1021.2 hPa SW 25.6 km/h 56.2 km/h 60% 0.0 mm 256 W/m2
09:11 10.1 °C 2.7 °C 1020.9 hPa SW 29.4 km/h 48.9 km/h 60% 0.0 mm 232 W/m2
09:16 10.1 °C 2.4 °C 1021.2 hPa SW 29.4 km/h 46.5 km/h 59% 0.0 mm 277 W/m2
09:21 10.1 °C 2.4 °C 1021.2 hPa SW 35.6 km/h 52.6 km/h 59% 0.0 mm 260 W/m2
09:22 10.0 °C 2.6 °C 1021.2 hPa SW 24.5 km/h 52.6 km/h 60% 0.0 mm 82 W/m2
09:27 10.1 °C 3.2 °C 1021.2 hPa WSW 25.6 km/h 52.6 km/h 62% 0.0 mm 172 W/m2
09:32 10.2 °C 2.8 °C 1021.2 hPa SW 36.7 km/h 52.6 km/h 60% 0.0 mm 73 W/m2
09:37 10.2 °C 2.6 °C 1021.2 hPa SW 28.0 km/h 52.6 km/h 59% 0.0 mm 89 W/m2
09:42 10.3 °C 3.1 °C 1021.2 hPa SW 24.5 km/h 50.0 km/h 61% 0.0 mm 80 W/m2
09:47 10.3 °C 2.2 °C 1021.6 hPa WSW 33.1 km/h 55.0 km/h 57% 0.0 mm 88 W/m2
09:52 10.4 °C 2.7 °C 1021.6 hPa SW 42.8 km/h 55.0 km/h 59% 0.0 mm 66 W/m2
09:57 10.1 °C 2.2 °C 1021.6 hPa WSW 37.8 km/h 51.5 km/h 58% 0.0 mm 82 W/m2
10:02 10.4 °C 2.5 °C 1021.9 hPa WSW 28.0 km/h 55.0 km/h 58% 0.0 mm 113 W/m2
10:07 10.3 °C 2.2 °C 1021.9 hPa WSW 37.8 km/h 55.0 km/h 57% 0.0 mm 87 W/m2
10:12 10.3 °C 2.7 °C 1022.2 hPa WSW 27.0 km/h 52.6 km/h 59% 0.0 mm 87 W/m2
10:17 10.5 °C 2.8 °C 1021.9 hPa WSW 28.0 km/h 52.6 km/h 59% 0.0 mm 94 W/m2
10:22 10.4 °C 3.0 °C 1022.2 hPa SW 29.4 km/h 60.2 km/h 60% 0.0 mm 77 W/m2
10:27 10.7 °C 3.3 °C 1022.2 hPa SW 34.3 km/h 60.2 km/h 60% 0.0 mm 95 W/m2
10:47 10.4 °C 3.7 °C 1022.6 hPa WSW 24.5 km/h 50.0 km/h 63% 0.0 mm 111 W/m2
10:52 10.5 °C 3.6 °C 1022.6 hPa SW 30.6 km/h 48.9 km/h 62% 0.0 mm 212 W/m2
10:57 10.7 °C 3.7 °C 1022.6 hPa WSW 37.8 km/h 51.5 km/h 62% 0.0 mm 200 W/m2
11:02 10.8 °C 3.6 °C 1022.9 hPa WSW 31.7 km/h 51.5 km/h 61% 0.0 mm 296 W/m2
11:07 10.8 °C 3.8 °C 1022.9 hPa WSW 24.5 km/h 47.9 km/h 62% 0.0 mm 281 W/m2
11:12 10.9 °C 3.9 °C 1022.6 hPa SW 28.0 km/h 41.7 km/h 62% 0.0 mm 259 W/m2
11:17 10.9 °C 3.7 °C 1022.9 hPa SW 27.0 km/h 48.9 km/h 61% 0.0 mm 146 W/m2
11:22 11.1 °C 4.1 °C 1022.9 hPa SW 28.0 km/h 48.9 km/h 62% 0.0 mm 221 W/m2
11:27 11.0 °C 3.8 °C 1022.9 hPa WSW 28.0 km/h 45.4 km/h 61% 0.0 mm 215 W/m2
11:32 10.9 °C 3.7 °C 1023.2 hPa WSW 30.6 km/h 46.5 km/h 61% 0.0 mm 222 W/m2
11:37 10.9 °C 3.9 °C 1023.2 hPa SW 39.3 km/h 51.5 km/h 62% 0.0 mm 92 W/m2
11:42 10.7 °C 3.7 °C 1023.2 hPa SW 23.3 km/h 51.5 km/h 62% 0.0 mm 182 W/m2
11:47 11.0 °C 3.8 °C 1023.2 hPa SW 18.3 km/h 51.5 km/h 61% 0.0 mm 219 W/m2
11:52 11.1 °C 3.6 °C 1023.2 hPa SW 30.6 km/h 54.1 km/h 60% 0.0 mm 119 W/m2
11:57 11.1 °C 3.4 °C 1023.2 hPa WSW 33.1 km/h 54.1 km/h 59% 0.0 mm 110 W/m2
12:02 11.1 °C 3.9 °C 1023.2 hPa SW 17.2 km/h 54.1 km/h 61% 0.0 mm 200 W/m2
12:04 11.4 °C 4.4 °C 1023.2 hPa SW 21.9 km/h 47.9 km/h 62% 0.0 mm 132 W/m2
12:09 11.0 °C 3.8 °C 1023.2 hPa SW 24.5 km/h 42.8 km/h 61% 0.0 mm 151 W/m2
12:14 10.9 °C 3.7 °C 1023.2 hPa WSW 30.6 km/h 45.4 km/h 61% 0.0 mm 120 W/m2
12:19 10.9 °C 4.1 °C 1023.2 hPa SW 19.5 km/h 45.4 km/h 63% 0.0 mm 208 W/m2
12:24 11.0 °C 4.0 °C 1023.6 hPa SW 29.4 km/h 43.9 km/h 62% 0.0 mm 144 W/m2
12:29 10.7 °C 3.5 °C 1023.6 hPa WSW 23.3 km/h 40.4 km/h 61% 0.0 mm 158 W/m2
12:34 10.9 °C 3.9 °C 1023.6 hPa WSW 21.9 km/h 40.4 km/h 62% 0.0 mm 161 W/m2
12:39 11.2 °C 3.0 °C 1023.6 hPa SW 24.5 km/h 47.9 km/h 57% 0.0 mm 160 W/m2
12:44 11.2 °C 3.2 °C 1023.6 hPa SSW 25.6 km/h 47.9 km/h 58% 0.0 mm 136 W/m2
12:49 10.7 °C 3.0 °C 1023.9 hPa SW 23.3 km/h 40.4 km/h 59% 0.0 mm 106 W/m2
12:54 10.8 °C 3.3 °C 1023.6 hPa SW 17.2 km/h 45.4 km/h 60% 0.0 mm 159 W/m2
12:59 10.8 °C 3.6 °C 1023.6 hPa SW 25.6 km/h 45.4 km/h 61% 0.0 mm 175 W/m2
13:04 11.0 °C 2.8 °C 1023.6 hPa WSW 24.5 km/h 43.9 km/h 57% 0.0 mm 182 W/m2
13:09 11.2 °C 3.7 °C 1023.6 hPa WSW 21.9 km/h 43.9 km/h 60% 0.0 mm 198 W/m2
13:14 11.6 °C 3.9 °C 1023.6 hPa SW 21.9 km/h 45.4 km/h 59% 0.0 mm 146 W/m2
13:19 11.2 °C 3.0 °C 1023.6 hPa SW 23.3 km/h 45.4 km/h 57% 0.0 mm 141 W/m2
13:24 11.1 °C 3.2 °C 1023.6 hPa SW 24.5 km/h 42.8 km/h 58% 0.0 mm 119 W/m2
13:29 10.9 °C 3.7 °C 1023.6 hPa SW 23.3 km/h 42.8 km/h 61% 0.0 mm 131 W/m2
13:34 10.9 °C 3.4 °C 1023.6 hPa WSW 28.0 km/h 42.8 km/h 60% 0.0 mm 151 W/m2
13:39 11.5 °C 3.5 °C 1023.9 hPa WSW 29.4 km/h 42.8 km/h 58% 0.0 mm 164 W/m2
13:44 11.6 °C 3.6 °C 1023.9 hPa WSW 17.2 km/h 42.8 km/h 58% 0.0 mm 134 W/m2
13:49 11.7 °C 3.7 °C 1023.9 hPa WSW 17.2 km/h 41.7 km/h 58% 0.0 mm 129 W/m2
13:54 12.0 °C 2.7 °C 1023.9 hPa West 27.0 km/h 36.7 km/h 53% 0.0 mm 150 W/m2
13:59 11.5 °C 2.8 °C 1023.9 hPa SW 24.5 km/h 40.4 km/h 55% 0.0 mm 155 W/m2
14:04 11.6 °C 2.9 °C 1023.9 hPa SW 23.3 km/h 40.4 km/h 55% 0.0 mm 171 W/m2
14:07 12.1 °C 3.1 °C 1023.9 hPa SW 23.3 km/h 40.4 km/h 54% 0.0 mm 212 W/m2
14:12 12.3 °C 2.7 °C 1024.3 hPa SW 25.6 km/h 42.8 km/h 52% 0.0 mm 153 W/m2
14:17 11.7 °C 2.7 °C 1023.9 hPa SW 33.1 km/h 43.9 km/h 54% 0.0 mm 202 W/m2
14:22 11.5 °C 2.8 °C 1023.9 hPa WSW 27.0 km/h 43.9 km/h 55% 0.0 mm 159 W/m2
14:27 11.6 °C 2.6 °C 1023.9 hPa WSW 21.9 km/h 47.9 km/h 54% 0.0 mm 250 W/m2
14:32 11.3 °C 2.1 °C 1023.9 hPa SW 27.0 km/h 47.9 km/h 53% 0.0 mm 244 W/m2
14:37 11.8 °C 3.6 °C 1023.9 hPa SW 21.9 km/h 42.8 km/h 57% 0.0 mm 267 W/m2
14:42 12.1 °C 3.3 °C 1023.9 hPa SW 25.6 km/h 48.9 km/h 55% 0.0 mm 262 W/m2
14:47 12.4 °C 3.6 °C 1024.3 hPa SW 25.6 km/h 48.9 km/h 55% 0.0 mm 156 W/m2
14:52 12.0 °C 3.5 °C 1023.9 hPa WSW 21.9 km/h 41.7 km/h 56% 0.0 mm 280 W/m2
14:57 12.1 °C 3.1 °C 1024.3 hPa WSW 34.3 km/h 48.9 km/h 54% 0.0 mm 262 W/m2
15:02 12.0 °C 3.2 °C 1024.3 hPa WSW 24.5 km/h 48.9 km/h 55% 0.0 mm 222 W/m2
15:07 12.0 °C 2.4 °C 1024.3 hPa SW 27.0 km/h 46.5 km/h 52% 0.0 mm 197 W/m2
15:12 12.0 °C 2.7 °C 1024.3 hPa SSW 28.0 km/h 46.5 km/h 53% 0.0 mm 114 W/m2
15:17 11.6 °C 3.4 °C 1024.3 hPa SSW 25.6 km/h 41.7 km/h 57% 0.0 mm 187 W/m2
15:22 11.9 °C 3.4 °C 1024.6 hPa SW 27.0 km/h 41.7 km/h 56% 0.0 mm 171 W/m2
15:27 12.0 °C 2.7 °C 1024.6 hPa SW 28.0 km/h 39.3 km/h 53% 0.0 mm 160 W/m2
15:32 12.0 °C 3.2 °C 1024.3 hPa SW 21.9 km/h 37.8 km/h 55% 0.0 mm 156 W/m2
15:37 11.7 °C 3.2 °C 1024.6 hPa WSW 25.6 km/h 43.9 km/h 56% 0.0 mm 78 W/m2
15:42 11.3 °C 3.1 °C 1024.6 hPa SW 19.5 km/h 43.9 km/h 57% 0.0 mm 58 W/m2
15:47 11.5 °C 3.3 °C 1024.3 hPa SW 19.5 km/h 36.7 km/h 57% 0.0 mm 64 W/m2
15:52 11.2 °C 3.5 °C 1024.6 hPa SW 20.9 km/h 35.6 km/h 59% 0.0 mm 77 W/m2
15:57 11.5 °C 3.8 °C 1024.6 hPa SW 25.6 km/h 37.8 km/h 59% 0.0 mm 96 W/m2
16:02 11.4 °C 3.4 °C 1024.6 hPa WSW 28.0 km/h 41.7 km/h 58% 0.0 mm 71 W/m2
16:07 11.2 °C 3.7 °C 1024.6 hPa SW 28.0 km/h 47.9 km/h 60% 0.0 mm 39 W/m2
16:12 11.2 °C 3.9 °C 1024.6 hPa SW 25.6 km/h 47.9 km/h 61% 0.0 mm 50 W/m2
16:17 11.3 °C 4.5 °C 1024.6 hPa SW 18.3 km/h 50.0 km/h 63% 0.0 mm 46 W/m2
16:22 11.3 °C 3.8 °C 1024.6 hPa SW 27.0 km/h 50.0 km/h 60% 0.0 mm 41 W/m2
16:27 11.5 °C 4.5 °C 1024.9 hPa SW 21.9 km/h 41.7 km/h 62% 0.0 mm 38 W/m2
16:32 11.5 °C 3.8 °C 1024.9 hPa WSW 20.9 km/h 42.8 km/h 59% 0.0 mm 31 W/m2
16:37 11.4 °C 2.9 °C 1024.9 hPa SW 31.7 km/h 58.7 km/h 56% 0.0 mm 28 W/m2
16:42 11.2 °C 3.0 °C 1024.9 hPa SSW 25.6 km/h 58.7 km/h 57% 0.0 mm 17 W/m2
16:47 11.1 °C 3.2 °C 1024.9 hPa SW 30.6 km/h 46.5 km/h 58% 0.0 mm 13 W/m2
16:52 11.1 °C 4.1 °C 1025.3 hPa SW 24.5 km/h 46.5 km/h 62% 0.0 mm 7 W/m2
16:58 11.0 °C 4.2 °C 1024.9 hPa SSW 28.0 km/h 43.9 km/h 63% 0.0 mm 4 W/m2
17:03 10.9 °C 4.3 °C 1025.3 hPa SSW 28.0 km/h 42.8 km/h 64% 0.0 mm 2 W/m2
17:20 10.3 °C 4.0 °C 1025.3 hPa SW 19.5 km/h 42.8 km/h 65% 0.0 mm 0 W/m2
17:25 10.3 °C 3.8 °C 1025.6 hPa WSW 19.5 km/h 45.4 km/h 64% 0.0 mm 0 W/m2
17:30 10.3 °C 4.0 °C 1026.0 hPa SW 13.4 km/h 45.4 km/h 65% 0.0 mm 0 W/m2
17:35 10.4 °C 3.9 °C 1025.6 hPa SW 21.9 km/h 37.8 km/h 64% 0.0 mm 0 W/m2
17:40 10.6 °C 3.8 °C 1025.6 hPa SW 24.5 km/h 45.4 km/h 63% 0.0 mm 0 W/m2
17:45 10.8 °C 3.8 °C 1025.6 hPa SW 17.2 km/h 45.4 km/h 62% 0.0 mm 0 W/m2
17:50 10.7 °C 3.9 °C 1025.6 hPa SW 19.5 km/h 43.9 km/h 63% 0.0 mm 0 W/m2
17:56 10.7 °C 3.9 °C 1026.0 hPa SW 17.2 km/h 39.3 km/h 63% 0.0 mm 0 W/m2
18:01 10.6 °C 4.1 °C 1026.0 hPa SW 20.9 km/h 36.7 km/h 64% 0.0 mm 0 W/m2
18:06 10.5 °C 4.2 °C 1026.0 hPa WSW 11.1 km/h 33.1 km/h 65% 0.0 mm 0 W/m2
18:11 10.4 °C 3.9 °C 1026.0 hPa WSW 29.4 km/h 41.7 km/h 64% 0.0 mm 0 W/m2
18:16 10.4 °C 3.9 °C 1026.0 hPa WSW 25.6 km/h 42.8 km/h 64% 0.0 mm 0 W/m2
18:21 10.5 °C 4.2 °C 1026.0 hPa SW 18.3 km/h 42.8 km/h 65% 0.0 mm 0 W/m2
18:26 10.6 °C 3.6 °C 1026.3 hPa SW 21.9 km/h 41.7 km/h 62% 0.0 mm 0 W/m2
18:31 10.6 °C 3.6 °C 1026.3 hPa SW 21.9 km/h 41.7 km/h 62% 0.0 mm 0 W/m2
18:36 10.6 °C 3.8 °C 1026.3 hPa SW 24.5 km/h 39.3 km/h 63% 0.0 mm 0 W/m2
18:41 10.5 °C 4.0 °C 1026.3 hPa SW 28.0 km/h 40.4 km/h 64% 0.0 mm 0 W/m2
18:46 10.6 °C 3.2 °C 1026.3 hPa SW 27.0 km/h 48.9 km/h 60% 0.0 mm 0 W/m2
18:51 10.6 °C 3.4 °C 1026.3 hPa SW 25.6 km/h 48.9 km/h 61% 0.0 mm 0 W/m2
18:56 10.5 °C 3.8 °C 1026.3 hPa SW 20.9 km/h 40.4 km/h 63% 0.0 mm 0 W/m2
19:01 10.5 °C 3.6 °C 1026.3 hPa SW 29.4 km/h 42.8 km/h 62% 0.0 mm 0 W/m2
19:06 10.6 °C 3.8 °C 1026.6 hPa SW 17.2 km/h 42.8 km/h 63% 0.0 mm 0 W/m2
19:11 10.5 °C 4.0 °C 1026.6 hPa SW 19.5 km/h 37.8 km/h 64% 0.0 mm 0 W/m2
19:16 10.6 °C 4.5 °C 1026.6 hPa SW 30.6 km/h 42.8 km/h 66% 0.0 mm 0 W/m2
19:21 10.6 °C 4.1 °C 1027.0 hPa SW 24.5 km/h 42.8 km/h 64% 0.0 mm 0 W/m2
19:26 10.6 °C 3.8 °C 1026.6 hPa SW 18.3 km/h 42.8 km/h 63% 0.0 mm 0 W/m2
19:31 10.6 °C 3.8 °C 1027.0 hPa SW 15.8 km/h 42.8 km/h 63% 0.0 mm 0 W/m2
19:36 10.5 °C 3.8 °C 1027.0 hPa SW 18.3 km/h 42.8 km/h 63% 0.0 mm 0 W/m2
19:41 10.5 °C 3.8 °C 1027.0 hPa SW 14.8 km/h 37.8 km/h 63% 0.0 mm 0 W/m2
19:46 10.4 °C 3.7 °C 1027.0 hPa SW 18.3 km/h 30.6 km/h 63% 0.0 mm 0 W/m2
19:51 10.5 °C 3.1 °C 1027.3 hPa SW 17.2 km/h 39.3 km/h 60% 0.0 mm 0 W/m2
19:56 10.4 °C 3.4 °C 1027.3 hPa SW 13.4 km/h 39.3 km/h 62% 0.0 mm 0 W/m2
20:01 10.4 °C 3.7 °C 1027.3 hPa SW 17.2 km/h 35.6 km/h 63% 0.0 mm 0 W/m2
20:06 10.4 °C 3.2 °C 1027.3 hPa SW 24.5 km/h 36.7 km/h 61% 0.0 mm 0 W/m2
20:11 10.4 °C 3.4 °C 1027.3 hPa SW 19.5 km/h 36.7 km/h 62% 0.0 mm 0 W/m2
20:16 10.4 °C 3.4 °C 1027.3 hPa SW 19.5 km/h 31.7 km/h 62% 0.0 mm 0 W/m2
20:21 10.3 °C 3.6 °C 1027.3 hPa WSW 12.2 km/h 31.7 km/h 63% 0.0 mm 0 W/m2
20:26 10.3 °C 3.3 °C 1027.3 hPa WSW 29.4 km/h 36.7 km/h 62% 0.0 mm 0 W/m2
20:31 10.4 °C 3.7 °C 1027.7 hPa SW 31.7 km/h 43.9 km/h 63% 0.0 mm 0 W/m2
20:36 10.6 °C 3.4 °C 1027.7 hPa SW 33.1 km/h 43.9 km/h 61% 0.0 mm 0 W/m2
20:41 10.5 °C 3.6 °C 1027.7 hPa SW 23.3 km/h 43.9 km/h 62% 0.0 mm 0 W/m2
20:46 10.4 °C 3.7 °C 1027.7 hPa WSW 15.8 km/h 43.9 km/h 63% 0.0 mm 0 W/m2
20:51 10.3 °C 3.6 °C 1028.0 hPa WSW 15.8 km/h 33.1 km/h 63% 0.0 mm 0 W/m2
20:56 10.3 °C 3.6 °C 1028.0 hPa WSW 25.6 km/h 34.3 km/h 63% 0.0 mm 0 W/m2
21:01 10.3 °C 3.6 °C 1028.0 hPa West 19.5 km/h 34.3 km/h 63% 0.0 mm 0 W/m2
21:06 10.2 °C 3.9 °C 1028.3 hPa West 14.8 km/h 31.7 km/h 65% 0.0 mm 0 W/m2
21:11 10.2 °C 3.5 °C 1028.3 hPa WSW 21.9 km/h 30.6 km/h 63% 0.0 mm 0 W/m2
21:16 10.3 °C 3.6 °C 1028.3 hPa SW 21.9 km/h 30.6 km/h 63% 0.0 mm 0 W/m2
21:21 10.2 °C 3.2 °C 1028.3 hPa WSW 15.8 km/h 42.8 km/h 62% 0.0 mm 0 W/m2
21:26 10.2 °C 3.5 °C 1028.3 hPa WSW 15.8 km/h 42.8 km/h 63% 0.0 mm 0 W/m2
21:31 10.2 °C 3.7 °C 1028.3 hPa WSW 23.3 km/h 40.4 km/h 64% 0.0 mm 0 W/m2
21:36 10.4 °C 3.2 °C 1028.3 hPa SW 23.3 km/h 33.1 km/h 61% 0.0 mm 0 W/m2
21:41 10.5 °C 3.8 °C 1028.7 hPa SW 12.2 km/h 33.1 km/h 63% 0.0 mm 0 W/m2
21:46 10.3 °C 3.8 °C 1028.7 hPa SW 15.8 km/h 30.6 km/h 64% 0.0 mm 0 W/m2
21:51 10.3 °C 3.6 °C 1028.7 hPa WSW 21.9 km/h 29.4 km/h 63% 0.0 mm 0 W/m2
21:56 10.3 °C 3.1 °C 1028.7 hPa SW 21.9 km/h 37.8 km/h 61% 0.0 mm 0 W/m2
22:01 10.2 °C 3.5 °C 1028.7 hPa WSW 7.2 km/h 37.8 km/h 63% 0.0 mm 0 W/m2
22:06 9.9 °C 3.6 °C 1028.7 hPa WSW 6.1 km/h 33.1 km/h 65% 0.0 mm 0 W/m2
22:11 9.3 °C 3.1 °C 1028.7 hPa West 3.5 km/h 13.4 km/h 65% 0.0 mm 0 W/m2
22:16 8.7 °C 2.9 °C 1028.7 hPa NW 7.2 km/h 12.2 km/h 67% 0.0 mm 0 W/m2
22:21 8.3 °C 2.7 °C 1029.0 hPa WNW 3.5 km/h 12.2 km/h 68% 0.0 mm 0 W/m2
22:26 8.2 °C 2.8 °C 1028.7 hPa NW 3.5 km/h 9.7 km/h 69% 0.0 mm 0 W/m2
22:31 8.0 °C 2.7 °C 1029.0 hPa NW 6.1 km/h 9.7 km/h 69% 0.0 mm 0 W/m2
22:36 7.7 °C 2.6 °C 1028.7 hPa NW 5.0 km/h 9.7 km/h 70% 0.0 mm 0 W/m2
22:41 7.6 °C 2.7 °C 1029.0 hPa NW 2.6 km/h 8.7 km/h 71% 0.0 mm 0 W/m2
22:46 7.6 °C 2.7 °C 1029.0 hPa NW 2.6 km/h 8.7 km/h 71% 0.0 mm 0 W/m2
22:51 7.7 °C 2.8 °C 1029.0 hPa WNW 6.1 km/h 11.1 km/h 71% 0.0 mm 0 W/m2
22:56 8.2 °C 2.8 °C 1029.0 hPa West 11.1 km/h 17.2 km/h 69% 0.0 mm 0 W/m2
23:01 8.7 °C 2.9 °C 1029.0 hPa West 5.0 km/h 17.2 km/h 67% 0.0 mm 0 W/m2
23:06 8.9 °C 2.9 °C 1029.0 hPa West 5.0 km/h 17.2 km/h 66% 0.0 mm 0 W/m2
23:11 9.1 °C 2.7 °C 1029.0 hPa West 6.1 km/h 13.4 km/h 64% 0.0 mm 0 W/m2
23:16 9.1 °C 2.7 °C 1029.0 hPa WNW 5.0 km/h 15.8 km/h 64% 0.0 mm 0 W/m2
23:21 8.5 °C 2.3 °C 1029.0 hPa WNW 7.2 km/h 15.8 km/h 65% 0.0 mm 0 W/m2
23:26 7.4 °C 1.9 °C 1029.0 hPa NNW 3.5 km/h 9.7 km/h 68% 0.0 mm 0 W/m2
23:31 6.9 °C 2.2 °C 1029.3 hPa NNW 5.0 km/h 9.7 km/h 72% 0.0 mm 0 W/m2
23:36 6.7 °C 2.2 °C 1029.0 hPa NNW 3.5 km/h 7.2 km/h 73% 0.0 mm 0 W/m2
23:41 6.5 °C 2.2 °C 1029.0 hPa NW 3.5 km/h 7.2 km/h 74% 0.0 mm 0 W/m2
23:47 6.4 °C 2.1 °C 1029.0 hPa NW 6.1 km/h 8.7 km/h 74% 0.0 mm 0 W/m2
23:52 6.3 °C 2.2 °C 1029.0 hPa NW 7.2 km/h 9.7 km/h 75% 0.0 mm 0 W/m2
23:58 6.1 °C 2.0 °C 1029.3 hPa NNW 6.1 km/h 9.7 km/h 75% 0.0 mm 0 W/m2
Northern Hawkes Bay. New Zealand Historic Data
Compliments of Weather Underground - 2 mb